createdAt,value
2022-11-30T00:01:20.559Z,40.23
2022-11-30T00:03:48.337Z,37.07
2022-11-30T00:06:16.900Z,31.37
2022-11-30T00:08:43.586Z,32.63
2022-11-30T00:11:15.282Z,33.80
2022-11-30T00:13:42.537Z,42.40
2022-11-30T00:16:10.164Z,39.37
2022-11-30T00:18:37.505Z,36.93
2022-11-30T00:21:08.630Z,36.40
2022-11-30T00:23:37.885Z,37.13
2022-11-30T00:26:07.151Z,42.47
2022-11-30T00:28:34.821Z,35.57
2022-11-30T00:31:04.175Z,40.93
2022-11-30T00:33:34.635Z,37.27
2022-11-30T00:36:04.273Z,36.83
2022-11-30T00:38:32.772Z,37.83
2022-11-30T00:41:00.708Z,39.90
2022-11-30T00:43:27.578Z,38.20
2022-11-30T00:45:54.773Z,37.57
2022-11-30T00:48:21.521Z,40.97
2022-11-30T00:50:49.851Z,39.27
2022-11-30T00:53:17.299Z,43.00
2022-11-30T00:55:45.177Z,39.50
2022-11-30T00:58:12.669Z,38.27
2022-11-30T01:00:40.365Z,40.53
2022-11-30T01:03:07.378Z,36.67
2022-11-30T01:05:34.662Z,42.30
2022-11-30T01:08:02.538Z,39.27
2022-11-30T01:10:29.254Z,41.20
2022-11-30T01:12:56.160Z,39.43
2022-11-30T01:15:23.348Z,42.07
2022-11-30T01:17:50.027Z,38.67
2022-11-30T01:20:16.717Z,37.37
2022-11-30T01:22:43.473Z,37.40
2022-11-30T01:25:10.194Z,41.67
2022-11-30T01:27:36.829Z,37.33
2022-11-30T01:30:05.321Z,38.20
2022-11-30T01:32:32.075Z,42.37
2022-11-30T01:34:58.722Z,41.93
2022-11-30T01:37:25.283Z,42.13
2022-11-30T01:39:51.881Z,37.13
2022-11-30T01:42:20.818Z,44.73
2022-11-30T01:44:57.377Z,42.10
2022-11-30T01:47:29.565Z,47.37
2022-11-30T01:50:13.524Z,44.23
2022-11-30T01:52:43.541Z,44.23
2022-11-30T01:55:24.647Z,40.13
2022-11-30T01:58:00.467Z,44.50
2022-11-30T02:00:27.279Z,40.97
2022-11-30T02:03:12.892Z,40.90
2022-11-30T02:05:41.366Z,42.83
2022-11-30T02:08:10.781Z,41.03
2022-11-30T02:10:45.131Z,44.73
2022-11-30T02:13:33.600Z,47.30
2022-11-30T02:16:03.029Z,39.20
2022-11-30T02:18:59.258Z,43.67
2022-11-30T02:21:40.892Z,40.70
2022-11-30T02:24:10.597Z,37.00
2022-11-30T02:26:54.664Z,39.30
2022-11-30T02:29:31.832Z,39.73
2022-11-30T02:32:11.926Z,38.60
2022-11-30T02:34:41.486Z,42.80
2022-11-30T02:37:10.790Z,40.90
2022-11-30T02:39:37.379Z,39.73
2022-11-30T02:42:04.050Z,39.90
2022-11-30T02:44:30.809Z,36.20
2022-11-30T02:47:23.629Z,31.47
2022-11-30T02:49:56.579Z,41.80
2022-11-30T02:52:27.097Z,31.83
2022-11-30T02:55:06.369Z,37.10
2022-11-30T02:57:34.013Z,34.93
2022-11-30T03:00:03.482Z,32.03
2022-11-30T03:02:30.156Z,31.40
2022-11-30T03:04:56.829Z,37.37
2022-11-30T03:07:23.481Z,37.00
2022-11-30T03:09:50.392Z,42.27
2022-11-30T03:12:16.980Z,37.93
2022-11-30T03:14:43.749Z,41.57
2022-11-30T03:17:10.514Z,44.43
2022-11-30T03:19:37.083Z,39.93
2022-11-30T03:22:03.999Z,49.60
2022-11-30T03:24:30.582Z,42.77
2022-11-30T03:26:57.434Z,41.67
2022-11-30T03:29:24.154Z,50.87
2022-11-30T03:31:50.803Z,49.60
2022-11-30T03:34:17.429Z,43.17
2022-11-30T03:36:44.037Z,34.47
2022-11-30T03:39:10.643Z,30.73
2022-11-30T03:41:37.238Z,26.50
2022-11-30T03:44:03.819Z,27.40
2022-11-30T03:46:30.598Z,23.57
2022-11-30T03:48:57.245Z,25.20
2022-11-30T03:51:23.851Z,20.93
2022-11-30T03:53:50.497Z,20.40
2022-11-30T03:56:17.312Z,16.23
2022-11-30T03:58:43.950Z,15.43
2022-11-30T04:01:16.137Z,14.10
2022-11-30T04:03:43.587Z,13.50
2022-11-30T04:06:12.373Z,10.97
2022-11-30T04:08:40.125Z,11.53
2022-11-30T04:11:07.149Z,13.77
2022-11-30T04:13:35.774Z,10.97
2022-11-30T04:16:02.609Z,10.67
2022-11-30T04:18:30.521Z,11.00
2022-11-30T04:20:59.380Z,10.73
2022-11-30T04:23:30.002Z,10.50
2022-11-30T04:25:57.449Z,11.60
2022-11-30T04:28:24.176Z,13.87
2022-11-30T04:30:50.793Z,11.27
2022-11-30T04:33:17.353Z,10.27
2022-11-30T04:35:49.340Z,12.07
2022-11-30T04:38:16.006Z,11.43
2022-11-30T04:40:43.517Z,13.17
2022-11-30T04:43:11.664Z,10.87
2022-11-30T04:45:38.696Z,8.50
2022-11-30T04:48:06.180Z,10.07
2022-11-30T04:50:33.080Z,10.53
2022-11-30T04:52:59.839Z,9.33
2022-11-30T04:55:26.580Z,8.30
2022-11-30T04:57:53.505Z,7.80
2022-11-30T05:00:20.385Z,8.87
2022-11-30T05:02:52.435Z,8.00
2022-11-30T05:05:20.132Z,10.77
2022-11-30T05:07:54.546Z,9.70
2022-11-30T05:10:21.158Z,10.57
2022-11-30T05:12:47.838Z,10.80
2022-11-30T05:15:14.448Z,11.33
2022-11-30T05:17:41.044Z,12.00
2022-11-30T05:20:08.004Z,14.00
2022-11-30T05:22:37.524Z,13.53
2022-11-30T05:25:04.388Z,12.20
2022-11-30T05:27:30.979Z,13.23
2022-11-30T05:29:57.537Z,14.70
2022-11-30T05:32:24.202Z,16.30
2022-11-30T05:34:51.924Z,20.67
2022-11-30T05:37:19.694Z,25.10
2022-11-30T05:39:46.353Z,32.73
2022-11-30T05:42:12.999Z,22.27
2022-11-30T05:44:39.575Z,62.80
2022-11-30T05:47:06.277Z,76.77
2022-11-30T05:49:32.888Z,79.67
2022-11-30T05:51:59.498Z,143.57
2022-11-30T05:54:26.059Z,164.63
2022-11-30T05:56:55.000Z,110.50
2022-11-30T05:59:22.789Z,99.13
2022-11-30T06:01:52.370Z,103.30
2022-11-30T06:04:19.717Z,128.70
2022-11-30T06:06:46.365Z,112.87
2022-11-30T06:09:12.980Z,79.97
2022-11-30T06:11:39.558Z,87.93
2022-11-30T06:14:06.276Z,65.00
2022-11-30T06:16:33.121Z,116.90
2022-11-30T06:18:59.911Z,82.17
2022-11-30T06:21:26.490Z,55.67
2022-11-30T06:23:53.121Z,36.63
2022-11-30T06:26:19.796Z,39.17
2022-11-30T06:28:48.439Z,49.97
2022-11-30T06:31:16.162Z,41.53
2022-11-30T06:33:42.950Z,48.73
2022-11-30T06:36:09.967Z,44.13
2022-11-30T06:38:36.830Z,38.43
2022-11-30T06:41:09.283Z,40.27
2022-11-30T06:43:39.642Z,63.60
2022-11-30T06:46:07.584Z,61.57
2022-11-30T06:48:35.467Z,56.37
2022-11-30T06:51:05.598Z,61.77
2022-11-30T06:53:32.203Z,108.33
2022-11-30T06:55:58.790Z,113.30
2022-11-30T06:58:25.378Z,55.23
2022-11-30T07:00:51.965Z,63.47
2022-11-30T07:03:18.584Z,87.67
2022-11-30T07:05:46.903Z,93.63
2022-11-30T07:08:17.466Z,76.90
2022-11-30T07:10:45.801Z,62.40
2022-11-30T07:13:18.405Z,50.27
2022-11-30T07:15:45.671Z,89.43
2022-11-30T07:18:12.768Z,135.33
2022-11-30T07:20:39.643Z,159.80
2022-11-30T07:23:24.725Z,174.23
2022-11-30T07:26:08.081Z,109.57
2022-11-30T07:28:36.593Z,55.43
2022-11-30T07:31:23.446Z,170.60
2022-11-30T07:33:50.697Z,74.50
2022-11-30T07:36:19.039Z,73.67
2022-11-30T07:38:46.268Z,85.97
2022-11-30T07:41:13.210Z,98.87
2022-11-30T07:43:40.370Z,146.30
2022-11-30T07:46:07.392Z,74.63
2022-11-30T07:48:35.220Z,92.83
2022-11-30T07:51:06.890Z,71.73
2022-11-30T07:53:34.226Z,52.53
2022-11-30T07:56:12.106Z,51.20
2022-11-30T07:58:39.506Z,45.27
2022-11-30T08:01:08.735Z,85.33
2022-11-30T08:03:37.431Z,71.27
2022-11-30T08:06:10.081Z,123.50
2022-11-30T08:08:39.118Z,108.10
2022-11-30T08:11:07.848Z,140.37
2022-11-30T08:13:34.520Z,149.50
2022-11-30T08:16:06.784Z,138.67
2022-11-30T08:18:33.418Z,172.77
2022-11-30T08:21:02.646Z,304.50
2022-11-30T08:23:31.052Z,165.20
2022-11-30T08:26:03.425Z,210.67
2022-11-30T08:28:30.748Z,152.07
2022-11-30T08:31:01.406Z,200.40
2022-11-30T08:33:30.789Z,215.13
2022-11-30T08:36:07.863Z,311.73
2022-11-30T08:38:35.044Z,197.20
2022-11-30T08:41:02.171Z,187.57
2022-11-30T08:43:28.904Z,196.20
2022-11-30T08:45:57.322Z,219.33
2022-11-30T08:48:24.431Z,224.67
2022-11-30T08:50:51.567Z,177.13
2022-11-30T08:53:18.208Z,111.97
2022-11-30T08:55:54.492Z,147.07
2022-11-30T08:58:21.088Z,136.63
2022-11-30T09:00:47.677Z,88.50
2022-11-30T09:03:14.285Z,32.17
2022-11-30T09:05:40.849Z,26.90
2022-11-30T09:08:07.611Z,30.43
2022-11-30T09:10:34.240Z,21.07
2022-11-30T09:13:00.879Z,21.50
2022-11-30T09:15:27.985Z,24.03
2022-11-30T09:17:54.547Z,19.87
2022-11-30T09:20:21.136Z,23.00
2022-11-30T09:22:47.712Z,16.43
2022-11-30T09:25:14.408Z,20.07
2022-11-30T09:27:40.951Z,21.13
2022-11-30T09:30:08.157Z,18.40
2022-11-30T09:32:34.769Z,32.33
2022-11-30T09:35:01.378Z,26.83
2022-11-30T09:37:27.952Z,43.07
2022-11-30T09:39:54.573Z,38.97
2022-11-30T09:42:31.735Z,100.40
2022-11-30T09:45:03.194Z,82.57
2022-11-30T09:47:39.021Z,51.93
2022-11-30T09:50:16.100Z,61.73
2022-11-30T09:52:46.899Z,140.17
2022-11-30T09:55:22.349Z,146.93
2022-11-30T09:57:58.792Z,181.97
2022-11-30T10:00:25.827Z,134.30
2022-11-30T10:02:56.225Z,126.83
2022-11-30T10:05:47.901Z,29.60
2022-11-30T10:08:28.108Z,61.63
2022-11-30T10:11:08.798Z,56.20
2022-11-30T10:13:55.651Z,42.20
2022-11-30T10:16:43.902Z,74.17
2022-11-30T10:19:41.522Z,37.27
2022-11-30T10:22:26.057Z,45.53
2022-11-30T10:25:14.525Z,83.87
2022-11-30T10:27:50.845Z,92.03
2022-11-30T10:30:32.443Z,78.07
2022-11-30T10:33:07.574Z,52.33
2022-11-30T10:35:34.132Z,48.53
2022-11-30T10:38:10.674Z,67.57
2022-11-30T10:40:53.040Z,98.53
2022-11-30T10:43:48.751Z,72.03
2022-11-30T10:46:22.170Z,159.67
2022-11-30T10:48:57.737Z,146.60
2022-11-30T10:51:26.616Z,140.73
2022-11-30T10:53:53.297Z,104.83
2022-11-30T10:56:19.979Z,99.27
2022-11-30T10:58:56.721Z,156.27
2022-11-30T11:01:41.034Z,39.33
2022-11-30T11:04:17.533Z,91.37
2022-11-30T11:06:52.638Z,79.33
2022-11-30T11:09:24.358Z,123.47
2022-11-30T11:11:59.652Z,52.07
2022-11-30T11:14:28.202Z,67.80
2022-11-30T11:17:00.303Z,57.27
2022-11-30T11:19:42.217Z,61.97
2022-11-30T11:22:26.839Z,22.87
2022-11-30T11:25:19.268Z,21.43
2022-11-30T11:27:55.614Z,21.67
2022-11-30T11:30:25.167Z,21.30
2022-11-30T11:33:25.729Z,19.13
2022-11-30T11:36:14.347Z,21.00
2022-11-30T11:38:43.729Z,22.67
2022-11-30T11:41:17.017Z,18.87
2022-11-30T11:43:58.519Z,22.83
2022-11-30T11:46:25.325Z,25.70
2022-11-30T11:49:21.259Z,23.97
2022-11-30T11:51:58.929Z,22.50
2022-11-30T11:54:50.920Z,22.17
2022-11-30T11:57:21.371Z,24.63
2022-11-30T11:59:54.924Z,23.97
2022-11-30T12:02:39.833Z,22.73
2022-11-30T12:05:17.734Z,25.90
2022-11-30T12:07:56.307Z,30.97
2022-11-30T12:13:27.135Z,31.57
2022-11-30T12:16:08.783Z,37.80
2022-11-30T12:19:10.626Z,50.73
2022-11-30T12:21:54.887Z,39.00
2022-11-30T12:25:05.531Z,38.53
2022-11-30T12:27:43.274Z,39.43
2022-11-30T12:30:33.253Z,39.80
2022-11-30T12:33:15.680Z,42.23
2022-11-30T12:35:58.657Z,42.80
2022-11-30T12:38:53.304Z,43.60
2022-11-30T12:41:37.246Z,46.43
2022-11-30T12:44:28.859Z,44.20
2022-11-30T12:47:18.443Z,35.97
2022-11-30T12:50:03.269Z,39.07
2022-11-30T12:52:39.100Z,32.97
2022-11-30T12:55:24.215Z,32.70
2022-11-30T12:58:15.092Z,35.20
2022-11-30T13:01:09.605Z,33.10
2022-11-30T13:03:49.355Z,32.90
2022-11-30T13:06:23.294Z,31.10
2022-11-30T13:09:02.993Z,33.70
2022-11-30T13:11:36.378Z,27.63
2022-11-30T13:14:09.917Z,32.57
2022-11-30T13:16:37.247Z,28.53
2022-11-30T13:19:29.877Z,28.17
2022-11-30T13:22:02.644Z,28.27
2022-11-30T13:24:44.620Z,27.30
2022-11-30T13:27:21.627Z,28.60
2022-11-30T13:30:19.334Z,28.60
2022-11-30T13:33:01.316Z,30.87
2022-11-30T13:35:27.877Z,28.17
2022-11-30T13:38:35.126Z,27.07
2022-11-30T13:40:55.467Z,30.90
2022-11-30T13:43:23.767Z,31.07
2022-11-30T13:46:03.009Z,26.73
2022-11-30T13:48:38.442Z,28.97
2022-11-30T13:51:05.635Z,30.63
2022-11-30T13:53:35.919Z,32.57
2022-11-30T13:56:11.454Z,31.10
2022-11-30T13:59:16.672Z,29.83
2022-11-30T14:01:43.324Z,31.50
2022-11-30T14:04:18.816Z,32.17
2022-11-30T14:06:51.570Z,34.87
2022-11-30T14:09:36.861Z,37.37
2022-11-30T14:12:31.380Z,39.53
2022-11-30T14:14:59.595Z,37.80
2022-11-30T14:17:28.877Z,73.47
2022-11-30T14:20:07.590Z,41.00
2022-11-30T14:22:34.864Z,61.93
2022-11-30T14:25:02.975Z,51.63
2022-11-30T14:27:30.462Z,50.60
2022-11-30T14:30:02.782Z,35.23
2022-11-30T14:32:38.010Z,36.73
2022-11-30T14:35:18.149Z,41.20
2022-11-30T14:37:52.467Z,50.57
2022-11-30T14:40:22.002Z,40.07
2022-11-30T14:42:50.974Z,48.23
2022-11-30T14:45:26.684Z,50.63
2022-11-30T14:48:05.630Z,41.37
2022-11-30T14:50:32.968Z,34.97
2022-11-30T14:53:11.241Z,38.40
2022-11-30T14:55:59.719Z,155.03
2022-11-30T14:58:39.009Z,53.30
2022-11-30T15:01:25.665Z,51.33
2022-11-30T15:03:55.707Z,141.13
2022-11-30T15:06:28.958Z,74.30
2022-11-30T15:08:58.025Z,65.47
2022-11-30T15:11:25.096Z,94.40
2022-11-30T15:13:54.482Z,149.37
2022-11-30T15:16:24.754Z,108.20
2022-11-30T15:18:53.805Z,173.60
2022-11-30T15:21:26.136Z,83.10
2022-11-30T15:23:55.326Z,83.27
2022-11-30T15:26:37.399Z,94.47
2022-11-30T15:29:09.718Z,82.47
2022-11-30T15:31:41.691Z,100.87
2022-11-30T15:34:18.669Z,44.37
2022-11-30T15:36:46.389Z,60.53
2022-11-30T15:39:33.212Z,37.10
2022-11-30T15:42:02.184Z,37.70
2022-11-30T15:44:37.762Z,37.57
2022-11-30T15:47:08.201Z,42.70
2022-11-30T15:49:36.392Z,37.37
2022-11-30T15:52:09.191Z,39.30
2022-11-30T15:54:43.914Z,37.13
2022-11-30T15:57:10.953Z,31.03
2022-11-30T15:59:37.555Z,37.63
2022-11-30T16:02:16.431Z,39.10
2022-11-30T16:04:58.107Z,33.03
2022-11-30T16:07:28.566Z,29.17
2022-11-30T16:10:06.331Z,30.53
2022-11-30T16:12:33.456Z,31.37
2022-11-30T16:15:00.049Z,28.80
2022-11-30T16:17:28.202Z,27.70
2022-11-30T16:19:54.734Z,29.23
2022-11-30T16:22:21.364Z,29.20
2022-11-30T16:24:48.050Z,30.90
2022-11-30T16:27:19.494Z,30.73
2022-11-30T16:29:52.135Z,28.33
2022-11-30T16:32:19.518Z,27.43
2022-11-30T16:34:48.024Z,27.83
2022-11-30T16:37:14.803Z,26.33
2022-11-30T16:39:41.464Z,29.50
2022-11-30T16:42:12.400Z,27.43
2022-11-30T16:44:39.004Z,24.23
2022-11-30T16:47:05.613Z,29.43
2022-11-30T16:49:32.240Z,29.43
2022-11-30T16:51:58.876Z,27.27
2022-11-30T16:54:25.456Z,27.30
2022-11-30T16:56:52.063Z,27.90
2022-11-30T16:59:18.630Z,26.67
2022-11-30T17:01:47.368Z,27.20
2022-11-30T17:04:19.606Z,25.80
2022-11-30T17:06:50.207Z,26.30
2022-11-30T17:09:20.276Z,25.83
2022-11-30T17:11:50.447Z,25.13
2022-11-30T17:14:17.564Z,29.33
2022-11-30T17:16:44.188Z,24.67
2022-11-30T17:19:11.677Z,24.87
2022-11-30T17:21:39.979Z,25.00
2022-11-30T17:24:07.059Z,24.83
2022-11-30T17:26:33.815Z,26.50
2022-11-30T17:29:00.441Z,23.67
2022-11-30T17:31:27.175Z,25.50
2022-11-30T17:33:53.918Z,23.23
2022-11-30T17:36:20.559Z,23.43
2022-11-30T17:38:47.184Z,23.17
2022-11-30T17:41:19.108Z,23.00
2022-11-30T17:43:46.674Z,25.97
2022-11-30T17:46:15.768Z,21.40
2022-11-30T17:48:43.725Z,21.07
2022-11-30T17:51:10.982Z,22.97
2022-11-30T17:53:38.651Z,24.70
2022-11-30T17:56:12.691Z,23.13
2022-11-30T17:58:43.915Z,23.13
2022-11-30T18:01:25.501Z,22.23
2022-11-30T18:03:53.575Z,22.07
2022-11-30T18:06:20.556Z,23.07
2022-11-30T18:08:47.392Z,23.60
2022-11-30T18:11:17.400Z,25.37
2022-11-30T18:13:43.999Z,26.60
2022-11-30T18:16:19.838Z,22.63
2022-11-30T18:18:48.521Z,23.97
2022-11-30T18:21:19.190Z,25.30
2022-11-30T18:23:46.037Z,26.40
2022-11-30T18:26:15.575Z,29.77
2022-11-30T18:28:42.921Z,31.50
2022-11-30T18:31:09.941Z,26.00
2022-11-30T18:33:37.446Z,27.33
2022-11-30T18:36:07.529Z,28.47
2022-11-30T18:38:37.964Z,26.63
2022-11-30T18:41:06.392Z,30.00
2022-11-30T18:43:33.980Z,29.67
2022-11-30T18:46:05.490Z,29.47
2022-11-30T18:48:32.307Z,28.57
2022-11-30T18:50:58.891Z,24.37
2022-11-30T18:53:25.764Z,28.40
2022-11-30T18:55:52.356Z,26.17
2022-11-30T18:58:18.916Z,28.10
2022-11-30T19:00:45.501Z,25.97
2022-11-30T19:03:12.080Z,29.13
2022-11-30T19:05:40.481Z,56.77
2022-11-30T19:08:11.398Z,29.27
2022-11-30T19:10:39.808Z,28.30
2022-11-30T19:13:07.096Z,28.73
2022-11-30T19:15:41.127Z,28.40
2022-11-30T19:18:10.871Z,25.73
2022-11-30T19:20:41.458Z,24.60
2022-11-30T19:23:08.369Z,28.13
2022-11-30T19:25:35.023Z,27.57
2022-11-30T19:28:01.606Z,32.27
2022-11-30T19:30:28.243Z,31.00
2022-11-30T19:32:54.858Z,30.53
2022-11-30T19:35:23.139Z,32.13
2022-11-30T19:37:52.241Z,33.43
2022-11-30T19:40:19.192Z,30.93
2022-11-30T19:42:45.827Z,31.10
2022-11-30T19:45:12.431Z,32.90
2022-11-30T19:47:39.124Z,31.87
2022-11-30T19:50:06.215Z,26.30
2022-11-30T19:52:32.798Z,26.63
2022-11-30T19:54:59.389Z,26.87
2022-11-30T19:57:25.996Z,32.10
2022-11-30T19:59:52.601Z,26.83
2022-11-30T20:02:19.240Z,28.17
2022-11-30T20:04:45.973Z,27.50
2022-11-30T20:07:13.898Z,27.13
2022-11-30T20:09:40.950Z,28.47
2022-11-30T20:12:07.566Z,27.40
2022-11-30T20:14:34.158Z,28.67
2022-11-30T20:17:00.706Z,29.60
2022-11-30T20:19:27.583Z,28.83
2022-11-30T20:21:54.200Z,27.93
2022-11-30T20:24:20.864Z,26.83
2022-11-30T20:26:47.473Z,27.37
2022-11-30T20:29:16.063Z,24.63
2022-11-30T20:31:45.034Z,29.30
2022-11-30T20:34:11.678Z,29.03
2022-11-30T20:36:38.280Z,28.73
2022-11-30T20:39:05.896Z,32.40
2022-11-30T20:41:34.012Z,31.87
2022-11-30T20:44:00.612Z,28.83
2022-11-30T20:46:32.831Z,31.40
2022-11-30T20:49:01.203Z,31.13
2022-11-30T20:51:34.724Z,28.60
2022-11-30T20:54:08.520Z,27.93
2022-11-30T20:56:37.207Z,30.03
2022-11-30T20:59:08.789Z,27.30
2022-11-30T21:01:35.472Z,28.40
2022-11-30T21:04:02.439Z,27.33
2022-11-30T21:06:30.441Z,30.67
2022-11-30T21:08:57.996Z,32.80
2022-11-30T21:11:24.920Z,30.90
2022-11-30T21:13:52.169Z,33.53
2022-11-30T21:16:27.341Z,30.50
2022-11-30T21:18:56.029Z,31.77
2022-11-30T21:21:24.537Z,32.73
2022-11-30T21:23:51.732Z,30.00
2022-11-30T21:26:18.270Z,32.00
2022-11-30T21:28:46.062Z,30.73
2022-11-30T21:31:13.074Z,27.80
2022-11-30T21:33:40.107Z,27.20
2022-11-30T21:36:08.952Z,29.30
2022-11-30T21:38:35.878Z,28.03
2022-11-30T21:41:03.188Z,29.80
2022-11-30T21:43:32.774Z,26.43
2022-11-30T21:46:08.363Z,30.23
2022-11-30T21:48:36.558Z,31.07
2022-11-30T21:51:14.939Z,36.17
2022-11-30T21:53:45.072Z,31.23
2022-11-30T21:56:15.485Z,33.57
2022-11-30T21:58:45.557Z,28.13
2022-11-30T22:01:18.238Z,27.17
2022-11-30T22:03:45.153Z,29.67
2022-11-30T22:06:14.196Z,28.63
2022-11-30T22:08:41.324Z,27.53
2022-11-30T22:11:10.368Z,31.37
2022-11-30T22:13:37.697Z,30.60
2022-11-30T22:16:07.525Z,29.73
2022-11-30T22:18:34.743Z,27.97
2022-11-30T22:21:10.085Z,24.60
2022-11-30T22:23:39.237Z,31.37
2022-11-30T22:26:15.114Z,27.07
2022-11-30T22:28:44.823Z,28.43
2022-11-30T22:31:13.391Z,30.43
2022-11-30T22:33:42.364Z,27.47
2022-11-30T22:36:13.686Z,30.00
2022-11-30T22:38:40.668Z,25.87
2022-11-30T22:41:10.744Z,32.40
2022-11-30T22:43:37.682Z,28.50
2022-11-30T22:46:13.530Z,40.13
2022-11-30T22:48:41.305Z,30.67
2022-11-30T22:51:19.676Z,25.00
2022-11-30T22:53:49.738Z,27.53
2022-11-30T22:56:25.208Z,25.70
2022-11-30T22:58:54.198Z,29.07
2022-11-30T23:01:23.783Z,40.13
2022-11-30T23:03:53.530Z,39.57
2022-11-30T23:06:21.051Z,34.33
2022-11-30T23:08:48.772Z,43.50
2022-11-30T23:11:22.014Z,47.37
2022-11-30T23:13:49.162Z,105.53
2022-11-30T23:16:16.561Z,70.10
2022-11-30T23:18:45.928Z,48.70
2022-11-30T23:21:15.381Z,43.73
2022-11-30T23:23:42.406Z,71.53
2022-11-30T23:26:33.790Z,99.80
2022-11-30T23:29:03.697Z,59.27
2022-11-30T23:31:35.242Z,51.73
2022-11-30T23:34:08.381Z,42.93
2022-11-30T23:36:35.823Z,39.37
2022-11-30T23:39:05.988Z,93.17
2022-11-30T23:41:32.958Z,81.33
2022-11-30T23:43:59.967Z,100.00
2022-11-30T23:46:26.627Z,67.30
2022-11-30T23:48:54.877Z,84.23
2022-11-30T23:51:22.316Z,167.37
2022-11-30T23:53:48.939Z,176.50
2022-11-30T23:56:17.639Z,130.20
2022-11-30T23:58:45.224Z,102.80
